createdAt,value
2022-08-22T00:00:42.797Z,13.86
2022-08-22T00:03:01.342Z,17.93
2022-08-22T00:04:17.015Z,13.74
2022-08-22T00:07:38.847Z,13.66
2022-08-22T00:11:19.645Z,13.70
2022-08-22T00:14:53.486Z,13.69
2022-08-22T00:18:05.712Z,13.67
2022-08-22T00:21:12.448Z,13.64
2022-08-22T00:24:28.749Z,13.61
2022-08-22T00:27:45.986Z,13.58
2022-08-22T00:30:58.824Z,13.49
2022-08-22T00:34:09.153Z,13.30
2022-08-22T00:37:34.761Z,13.12
2022-08-22T00:40:53.508Z,13.19
2022-08-22T00:44:17.123Z,12.96
2022-08-22T00:47:42.650Z,13.33
2022-08-22T00:51:05.678Z,13.10
2022-08-22T00:54:39.787Z,13.20
2022-08-22T00:58:08.975Z,13.27
2022-08-22T01:01:11.901Z,13.09
2022-08-22T01:04:52.212Z,12.94
2022-08-22T01:08:39.172Z,13.03
2022-08-22T01:12:07.021Z,12.87
2022-08-22T01:15:11.895Z,13.01
2022-08-22T01:19:08.457Z,12.92
2022-08-22T01:23:30.716Z,13.00
2022-08-22T01:27:21.448Z,12.79
2022-08-22T01:31:11.568Z,12.59
2022-08-22T01:34:18.333Z,12.53
2022-08-22T01:38:19.757Z,12.46
2022-08-22T01:42:05.604Z,12.42
2022-08-22T01:45:36.264Z,12.60
2022-08-22T01:48:51.031Z,12.75
2022-08-22T01:52:44.289Z,12.74
2022-08-22T01:56:12.937Z,12.62
2022-08-22T01:59:15.104Z,12.57
2022-08-22T02:02:51.343Z,12.61
2022-08-22T02:06:04.897Z,12.56
2022-08-22T02:09:34.496Z,12.52
2022-08-22T02:13:09.651Z,12.34
2022-08-22T02:16:29.078Z,12.47
2022-08-22T02:19:44.621Z,12.36
2022-08-22T02:22:55.089Z,12.43
2022-08-22T02:25:56.773Z,12.37
2022-08-22T02:29:53.108Z,12.34
2022-08-22T02:33:34.334Z,12.13
2022-08-22T02:37:23.281Z,12.33
2022-08-22T02:40:44.450Z,12.09
2022-08-22T02:44:19.516Z,12.09
2022-08-22T02:47:41.718Z,12.18
2022-08-22T02:50:57.822Z,12.13
2022-08-22T02:54:24.728Z,12.25
2022-08-22T02:58:06.033Z,12.32
2022-08-22T03:01:02.851Z,12.22
2022-08-22T03:04:30.750Z,12.27
2022-08-22T03:07:42.384Z,12.24
2022-08-22T03:10:47.642Z,12.05
2022-08-22T03:14:12.983Z,12.07
2022-08-22T03:17:25.922Z,12.07
2022-08-22T03:20:53.173Z,12.14
2022-08-22T03:24:01.215Z,12.09
2022-08-22T03:27:32.897Z,12.05
2022-08-22T03:30:44.530Z,12.04
2022-08-22T03:33:42.172Z,12.03
2022-08-22T03:36:39.238Z,11.94
2022-08-22T03:39:59.824Z,11.97
2022-08-22T03:43:14.231Z,11.63
2022-08-22T03:46:21.636Z,11.80
2022-08-22T03:49:24.005Z,11.89
2022-08-22T03:53:15.257Z,11.69
2022-08-22T03:56:57.398Z,11.86
2022-08-22T04:00:42.020Z,11.82
2022-08-22T04:04:35.286Z,11.52
2022-08-22T04:08:06.696Z,11.54
2022-08-22T04:11:48.755Z,11.71
2022-08-22T04:15:16.216Z,11.46
2022-08-22T04:18:29.112Z,11.52
2022-08-22T04:21:52.768Z,11.62
2022-08-22T04:25:16.854Z,11.57
2022-08-22T04:28:28.004Z,11.65
2022-08-22T04:31:36.563Z,11.50
2022-08-22T04:35:03.454Z,11.56
2022-08-22T04:38:29.350Z,11.55
2022-08-22T04:42:00.668Z,11.64
2022-08-22T04:45:24.112Z,11.49
2022-08-22T04:48:48.431Z,11.57
2022-08-22T04:52:29.508Z,11.53
2022-08-22T04:56:13.397Z,11.71
2022-08-22T04:59:17.924Z,11.59
2022-08-22T05:02:24.418Z,11.46
2022-08-22T05:05:32.955Z,11.54
2022-08-22T05:08:36.033Z,11.48
2022-08-22T05:11:38.359Z,11.47
2022-08-22T05:14:46.796Z,11.68
2022-08-22T05:17:46.273Z,11.72
2022-08-22T05:20:48.074Z,11.74
2022-08-22T05:24:06.543Z,11.82
2022-08-22T05:27:22.875Z,11.95
2022-08-22T05:30:27.849Z,11.85
2022-08-22T05:33:32.247Z,11.92
2022-08-22T05:36:40.413Z,12.02
2022-08-22T05:39:40.335Z,12.00
2022-08-22T05:42:37.655Z,12.27
2022-08-22T05:45:36.299Z,12.60
2022-08-22T05:48:46.160Z,12.47
2022-08-22T05:52:05.276Z,12.37
2022-08-22T05:55:20.483Z,12.53
2022-08-22T05:58:41.385Z,12.72
2022-08-22T06:01:57.014Z,12.85
2022-08-22T06:05:00.951Z,12.65
2022-08-22T06:08:20.145Z,12.87
2022-08-22T06:11:26.351Z,12.86
2022-08-22T06:14:48.165Z,12.97
2022-08-22T06:17:58.160Z,12.98
2022-08-22T06:21:06.880Z,13.14
2022-08-22T06:24:08.653Z,12.94
2022-08-22T06:27:12.730Z,13.21
2022-08-22T06:30:14.960Z,13.32
2022-08-22T06:33:18.544Z,13.25
2022-08-22T06:36:32.190Z,13.34
2022-08-22T06:39:37.796Z,13.40
2022-08-22T06:42:41.746Z,13.58
2022-08-22T06:45:40.662Z,13.71
2022-08-22T06:48:38.221Z,13.77
2022-08-22T06:51:38.021Z,14.00
2022-08-22T06:54:40.394Z,14.12
2022-08-22T06:57:50.449Z,14.18
2022-08-22T07:01:05.710Z,14.33
2022-08-22T07:04:11.279Z,14.48
2022-08-22T07:07:08.259Z,14.55
2022-08-22T07:10:05.940Z,14.69
2022-08-22T07:13:04.403Z,14.77
2022-08-22T07:16:07.741Z,14.90
2022-08-22T07:19:06.117Z,15.04
2022-08-22T07:22:26.012Z,15.19
2022-08-22T07:25:24.670Z,15.34
2022-08-22T07:28:50.798Z,15.49
2022-08-22T07:32:18.900Z,15.66
2022-08-22T07:35:26.787Z,15.85
2022-08-22T07:38:43.750Z,16.03
2022-08-22T07:42:19.220Z,16.30
2022-08-22T07:45:49.402Z,16.43
2022-08-22T07:49:08.540Z,16.60
2022-08-22T07:52:11.931Z,16.87
2022-08-22T07:55:20.358Z,16.82
2022-08-22T07:58:18.633Z,17.13
2022-08-22T08:01:20.715Z,17.27
2022-08-22T08:04:35.810Z,17.57
2022-08-22T08:07:35.688Z,17.59
2022-08-22T08:10:37.369Z,17.80
2022-08-22T08:13:46.903Z,17.80
2022-08-22T08:17:05.124Z,17.71
2022-08-22T08:20:16.269Z,17.74
2022-08-22T08:23:23.589Z,18.10
2022-08-22T08:26:30.463Z,19.17
2022-08-22T08:29:28.854Z,19.98
2022-08-22T08:32:31.982Z,20.35
2022-08-22T08:35:42.401Z,20.78
2022-08-22T08:39:24.352Z,19.76
2022-08-22T08:43:10.872Z,20.51
2022-08-22T08:46:43.352Z,19.72
2022-08-22T08:49:56.018Z,19.64
2022-08-22T08:53:18.674Z,19.72
2022-08-22T08:56:19.929Z,19.72
2022-08-22T09:00:00.793Z,20.95
2022-08-22T09:03:51.242Z,20.63
2022-08-22T09:07:06.867Z,21.14
2022-08-22T09:10:59.966Z,20.41
2022-08-22T09:14:21.421Z,20.12
2022-08-22T09:17:34.429Z,19.93
2022-08-22T09:20:51.076Z,20.10
2022-08-22T09:24:33.783Z,19.96
2022-08-22T09:27:45.551Z,19.94
2022-08-22T09:31:48.317Z,21.42
2022-08-22T09:35:14.626Z,22.84
2022-08-22T09:38:37.089Z,22.58
2022-08-22T09:42:08.127Z,23.36
2022-08-22T09:45:24.670Z,22.15
2022-08-22T09:48:31.634Z,22.43
2022-08-22T09:51:55.355Z,22.32
2022-08-22T09:55:07.913Z,23.30
2022-08-22T09:58:19.583Z,24.07
2022-08-22T10:02:03.025Z,24.19
2022-08-22T10:05:35.256Z,24.20
2022-08-22T10:09:00.832Z,25.22
2022-08-22T10:12:12.515Z,23.22
2022-08-22T10:15:35.545Z,24.03
2022-08-22T10:19:17.945Z,23.94
2022-08-22T10:23:03.729Z,23.93
2022-08-22T10:26:38.405Z,23.55
2022-08-22T10:30:06.457Z,22.78
2022-08-22T10:33:23.074Z,22.91
2022-08-22T10:36:36.140Z,23.02
2022-08-22T10:40:07.956Z,22.81
2022-08-22T10:43:14.882Z,22.48
2022-08-22T10:46:29.402Z,22.79
2022-08-22T10:50:10.744Z,23.50
2022-08-22T10:53:42.834Z,23.00
2022-08-22T10:56:59.298Z,23.58
2022-08-22T11:00:12.389Z,23.61
2022-08-22T11:03:40.829Z,23.71
2022-08-22T11:07:09.473Z,23.21
2022-08-22T11:10:34.906Z,23.72
2022-08-22T11:14:19.727Z,23.80
2022-08-22T11:18:04.985Z,23.80
2022-08-22T11:21:16.492Z,24.12
2022-08-22T11:25:07.343Z,24.65
2022-08-22T11:28:33.262Z,25.02
2022-08-22T11:31:51.949Z,25.14
2022-08-22T11:34:57.417Z,25.28
2022-08-22T11:38:28.059Z,24.85
2022-08-22T11:41:58.017Z,24.80
2022-08-22T11:45:01.066Z,25.50
2022-08-22T11:48:47.058Z,25.17
2022-08-22T11:52:13.422Z,25.75
2022-08-22T11:55:33.227Z,26.12
2022-08-22T11:58:55.586Z,25.44
2022-08-22T12:02:03.963Z,25.64
2022-08-22T12:05:21.570Z,25.00
2022-08-22T12:08:52.149Z,25.38
2022-08-22T12:12:04.574Z,25.52
2022-08-22T12:15:13.367Z,26.35
2022-08-22T12:18:42.500Z,26.10
2022-08-22T12:22:00.615Z,25.86
2022-08-22T12:25:44.521Z,26.68
2022-08-22T12:29:20.134Z,25.62
2022-08-22T12:32:45.688Z,24.89
2022-08-22T12:36:21.901Z,24.69
2022-08-22T12:39:51.042Z,25.07
2022-08-22T12:43:18.861Z,25.44
2022-08-22T12:47:02.891Z,25.79
2022-08-22T12:50:12.331Z,26.01
2022-08-22T12:53:32.381Z,26.36
2022-08-22T12:56:58.668Z,26.16
2022-08-22T13:00:22.992Z,26.17
2022-08-22T13:03:32.869Z,25.69
2022-08-22T13:06:35.622Z,25.22
2022-08-22T13:09:40.651Z,25.33
2022-08-22T13:12:50.331Z,24.94
2022-08-22T13:16:16.232Z,24.98
2022-08-22T13:19:32.046Z,25.92
2022-08-22T13:22:34.843Z,25.63
2022-08-22T13:26:10.505Z,25.42
2022-08-22T13:29:39.542Z,25.07
2022-08-22T13:32:44.671Z,25.10
2022-08-22T13:36:10.849Z,25.35
2022-08-22T13:39:38.752Z,26.07
2022-08-22T13:42:45.543Z,25.98
2022-08-22T13:45:56.733Z,24.99
2022-08-22T13:49:00.736Z,26.01
2022-08-22T13:52:29.963Z,26.24
2022-08-22T13:55:34.613Z,25.83
2022-08-22T13:58:50.114Z,25.82
2022-08-22T14:02:18.337Z,26.22
2022-08-22T14:05:33.185Z,25.93
2022-08-22T14:08:36.463Z,26.00
2022-08-22T14:12:13.625Z,25.92
2022-08-22T14:15:12.645Z,26.04
2022-08-22T14:18:10.746Z,25.67
2022-08-22T14:21:33.440Z,25.42
2022-08-22T14:24:46.156Z,25.69
2022-08-22T14:28:09.439Z,25.72
2022-08-22T14:31:13.427Z,25.61
2022-08-22T14:34:14.572Z,25.87
2022-08-22T14:37:31.956Z,25.96
2022-08-22T14:40:36.437Z,26.13
2022-08-22T14:43:47.068Z,25.85
2022-08-22T14:46:54.761Z,25.37
2022-08-22T14:49:57.529Z,25.38
2022-08-22T14:53:18.269Z,25.27
2022-08-22T14:56:23.963Z,25.26
2022-08-22T14:59:37.773Z,25.15
2022-08-22T15:02:35.379Z,25.32
2022-08-22T15:05:50.763Z,25.65
2022-08-22T15:08:50.518Z,24.95
2022-08-22T15:11:48.716Z,25.02
2022-08-22T15:14:52.473Z,25.17
2022-08-22T15:17:49.529Z,25.27
2022-08-22T15:21:06.833Z,24.95
2022-08-22T15:24:13.156Z,25.35
2022-08-22T15:27:11.394Z,25.32
2022-08-22T15:30:18.860Z,24.92
2022-08-22T15:33:45.415Z,25.18
2022-08-22T15:37:07.839Z,25.08
2022-08-22T15:40:27.718Z,25.32
2022-08-22T15:43:34.953Z,24.94
2022-08-22T15:46:41.280Z,24.72
2022-08-22T15:50:00.540Z,24.68
2022-08-22T15:53:18.550Z,24.85
2022-08-22T15:56:15.500Z,24.60
2022-08-22T15:59:26.999Z,24.35
2022-08-22T16:02:53.519Z,24.15
2022-08-22T16:05:56.936Z,24.17
2022-08-22T16:08:55.334Z,24.16
2022-08-22T16:11:55.457Z,24.19
2022-08-22T16:14:53.328Z,23.96
2022-08-22T16:17:53.554Z,23.83
2022-08-22T16:20:54.184Z,23.54
2022-08-22T16:23:51.087Z,23.46
2022-08-22T16:26:48.833Z,23.34
2022-08-22T16:29:46.307Z,23.36
2022-08-22T16:32:53.269Z,23.48
2022-08-22T16:36:20.961Z,23.59
2022-08-22T16:39:23.665Z,23.42
2022-08-22T16:42:25.005Z,23.64
2022-08-22T16:45:24.617Z,23.63
2022-08-22T16:48:37.432Z,23.49
2022-08-22T16:51:34.493Z,23.38
2022-08-22T16:54:53.567Z,23.39
2022-08-22T16:58:17.730Z,23.26
2022-08-22T17:01:26.782Z,23.04
2022-08-22T17:04:51.462Z,23.10
2022-08-22T17:07:54.094Z,22.79
2022-08-22T17:11:40.622Z,22.83
2022-08-22T17:15:07.119Z,22.69
2022-08-22T17:18:25.546Z,22.62
2022-08-22T17:21:29.436Z,22.70
2022-08-22T17:24:50.954Z,22.34
2022-08-22T17:28:22.972Z,22.58
2022-08-22T17:31:54.823Z,22.45
2022-08-22T17:35:24.625Z,22.18
2022-08-22T17:38:51.847Z,22.13
2022-08-22T17:42:19.022Z,22.24
2022-08-22T17:46:00.253Z,22.14
2022-08-22T17:49:17.339Z,21.70
2022-08-22T17:52:38.026Z,21.25
2022-08-22T17:55:52.770Z,21.61
2022-08-22T17:59:20.931Z,20.99
2022-08-22T18:02:50.228Z,21.09
2022-08-22T18:05:49.127Z,21.09
2022-08-22T18:09:18.574Z,20.96
2022-08-22T18:12:33.677Z,20.92
2022-08-22T18:16:05.845Z,20.56
2022-08-22T18:19:16.916Z,20.49
2022-08-22T18:22:31.750Z,20.83
2022-08-22T18:25:41.571Z,20.53
2022-08-22T18:29:13.266Z,20.22
2022-08-22T18:32:35.677Z,20.13
2022-08-22T18:35:54.701Z,20.07
2022-08-22T18:39:15.613Z,20.15
2022-08-22T18:42:33.233Z,19.87
2022-08-22T18:45:48.284Z,19.72
2022-08-22T18:49:11.675Z,19.71
2022-08-22T18:52:20.201Z,19.39
2022-08-22T18:55:28.311Z,19.35
2022-08-22T18:59:05.448Z,19.26
2022-08-22T19:02:21.043Z,19.17
2022-08-22T19:05:47.016Z,19.08
2022-08-22T19:09:03.330Z,18.91
2022-08-22T19:12:50.048Z,19.24
2022-08-22T19:15:59.354Z,19.25
2022-08-22T19:19:03.380Z,19.21
2022-08-22T19:22:33.895Z,19.15
2022-08-22T19:25:30.765Z,18.88
2022-08-22T19:28:36.742Z,18.54
2022-08-22T19:31:37.203Z,18.59
2022-08-22T19:34:46.900Z,18.57
2022-08-22T19:37:57.757Z,18.46
2022-08-22T19:40:58.593Z,18.33
2022-08-22T19:43:55.579Z,18.20
2022-08-22T19:47:26.648Z,18.06
2022-08-22T19:50:27.360Z,18.05
2022-08-22T19:54:20.362Z,17.91
2022-08-22T19:57:23.071Z,17.97
2022-08-22T20:01:07.512Z,18.03
2022-08-22T20:04:54.962Z,17.79
2022-08-22T20:08:06.722Z,17.75
2022-08-22T20:11:18.820Z,17.38
2022-08-22T20:14:33.594Z,17.50
2022-08-22T20:17:42.244Z,17.63
2022-08-22T20:20:59.810Z,17.43
2022-08-22T20:23:56.806Z,17.21
2022-08-22T20:27:13.272Z,17.30
2022-08-22T20:30:29.641Z,17.16
2022-08-22T20:33:41.591Z,17.06
2022-08-22T20:36:44.777Z,17.10
2022-08-22T20:40:55.305Z,17.12
2022-08-22T20:43:53.525Z,16.73
2022-08-22T20:47:11.322Z,16.57
2022-08-22T20:50:11.926Z,16.68
2022-08-22T20:53:17.384Z,16.63
2022-08-22T20:56:14.350Z,16.59
2022-08-22T20:59:39.754Z,16.56
2022-08-22T21:03:01.905Z,16.44
2022-08-22T21:06:19.358Z,16.22
2022-08-22T21:09:39.970Z,16.03
2022-08-22T21:12:36.808Z,15.96
2022-08-22T21:15:52.525Z,15.87
2022-08-22T21:18:52.478Z,15.79
2022-08-22T21:21:49.425Z,15.82
2022-08-22T21:24:47.187Z,15.82
2022-08-22T21:27:48.354Z,15.57
2022-08-22T21:30:47.333Z,15.66
2022-08-22T21:33:47.376Z,15.72
2022-08-22T21:36:44.602Z,15.73
2022-08-22T21:39:49.796Z,15.46
2022-08-22T21:43:10.137Z,15.48
2022-08-22T21:46:07.945Z,15.45
2022-08-22T21:49:05.392Z,15.24
2022-08-22T21:52:02.275Z,15.28
2022-08-22T21:55:32.803Z,15.40
2022-08-22T21:58:36.655Z,15.01
2022-08-22T22:01:34.184Z,15.19
2022-08-22T22:04:31.713Z,15.18
2022-08-22T22:07:29.230Z,15.30
2022-08-22T22:10:26.330Z,14.90
2022-08-22T22:13:24.101Z,14.97
2022-08-22T22:16:28.758Z,14.92
2022-08-22T22:19:25.661Z,14.57
2022-08-22T22:22:22.572Z,14.66
2022-08-22T22:25:39.016Z,14.57
2022-08-22T22:28:47.240Z,14.44
2022-08-22T22:31:44.102Z,14.47
2022-08-22T22:34:41.081Z,14.35
2022-08-22T22:37:38.030Z,14.49
2022-08-22T22:40:38.625Z,14.41
2022-08-22T22:43:36.334Z,14.49
2022-08-22T22:46:33.195Z,14.40
2022-08-22T22:49:32.517Z,14.20
2022-08-22T22:52:29.691Z,14.47
2022-08-22T22:55:26.557Z,14.58
2022-08-22T22:58:23.657Z,14.52
2022-08-22T23:01:25.584Z,14.47
2022-08-22T23:04:22.557Z,14.26
2022-08-22T23:07:20.847Z,14.35
2022-08-22T23:10:21.898Z,14.41
2022-08-22T23:13:19.202Z,14.22
2022-08-22T23:16:23.229Z,14.04
2022-08-22T23:19:20.086Z,14.02
2022-08-22T23:22:17.273Z,13.70
2022-08-22T23:25:15.015Z,13.82
2022-08-22T23:28:11.935Z,13.73
2022-08-22T23:31:26.403Z,13.75
2022-08-22T23:34:27.521Z,13.62
2022-08-22T23:37:24.620Z,13.43
2022-08-22T23:40:21.565Z,13.56
2022-08-22T23:43:18.438Z,13.58
2022-08-22T23:46:17.011Z,13.58
2022-08-22T23:49:15.666Z,13.27
2022-08-22T23:52:13.703Z,13.23
2022-08-22T23:55:10.585Z,13.44
2022-08-22T23:58:07.455Z,13.36
